RJCT(METAR)
02/28 07:00
METAR RJCT 272200Z 00000KT 9999 FEW040 M18/M20 Q1027 RMK 1CU040
A3035=
戻る
トップページへ戻る
IMOC Co,.Ltd.